Whitewater, New Mexico
Current Conditions -  °F | °C
As of 7:35 AM on Sunday 23 Nov 2014 (Local Time) from KLSB Reporting Station
Clear Clear  
Wind Chill: 34°   Ceiling: Unl
Heat Index: 39°   Visibility: 10mi
Dew Point: 23°   Wind: 7mph
Humidity: 52%   Direction: 300°WNW
Pressure: 30"   Gusts: NA
Location:  32.1676°N, 108.382°W
Report Text: KLSB 231435Z AUTO 30006KT 10SM CLR 04/M05 A3000 RMK AO2
Loading
Personal Weather Stations






























Interactive Weather Map New forecast layout! Learn more

10-Day Weather Forecast

Advertisements
Track Severe Weather on mobile